createdAt,value
2018-02-20T00:01:42.652Z,0.20
2018-02-20T00:04:10.099Z,0.20
2018-02-20T00:06:37.558Z,0.20
2018-02-20T00:09:05.007Z,0.20
2018-02-20T00:11:32.463Z,0.20
2018-02-20T00:13:59.918Z,0.20
2018-02-20T00:16:27.377Z,0.20
2018-02-20T00:18:54.832Z,0.20
2018-02-20T00:21:22.300Z,0.20
2018-02-20T00:23:49.756Z,0.20
2018-02-20T00:26:17.213Z,0.20
2018-02-20T00:28:44.671Z,0.20
2018-02-20T00:31:12.124Z,0.10
2018-02-20T00:33:39.579Z,0.10
2018-02-20T00:36:07.033Z,0.20
2018-02-20T00:38:34.494Z,0.10
2018-02-20T00:41:01.951Z,0.10
2018-02-20T00:43:29.404Z,0.10
2018-02-20T00:45:56.861Z,0.10
2018-02-20T00:48:24.306Z,0.10
2018-02-20T00:50:51.882Z,0.10
2018-02-20T00:53:19.330Z,0.10
2018-02-20T00:55:46.787Z,0.10
2018-02-20T00:58:14.249Z,0.10
2018-02-20T01:00:41.699Z,0.10
2018-02-20T01:03:09.143Z,0.10
2018-02-20T01:05:36.599Z,0.10
2018-02-20T01:08:04.063Z,0.10
2018-02-20T01:10:31.512Z,0.10
2018-02-20T01:12:58.969Z,0.10
2018-02-20T01:15:26.428Z,0.10
2018-02-20T01:17:53.881Z,0.10
2018-02-20T01:20:21.337Z,0.10
2018-02-20T01:22:48.795Z,0.10
2018-02-20T01:25:16.251Z,0.10
2018-02-20T01:27:43.711Z,0.10
2018-02-20T01:30:11.168Z,0.10
2018-02-20T01:32:38.623Z,0.10
2018-02-20T01:35:06.079Z,0.10
2018-02-20T01:37:33.529Z,0.10
2018-02-20T01:40:00.983Z,0.00
2018-02-20T01:42:28.430Z,0.00
2018-02-20T01:44:55.883Z,0.10
2018-02-20T01:47:23.331Z,0.10
2018-02-20T01:49:50.788Z,0.10
2018-02-20T01:52:18.243Z,0.10
2018-02-20T01:54:45.703Z,0.20
2018-02-20T01:57:13.155Z,0.10
2018-02-20T01:59:40.602Z,0.10
2018-02-20T02:02:08.054Z,0.10
2018-02-20T02:04:35.491Z,0.10
2018-02-20T02:07:02.938Z,0.10
2018-02-20T02:09:30.388Z,0.10
2018-02-20T02:11:57.844Z,0.10
2018-02-20T02:14:25.286Z,0.10
2018-02-20T02:16:52.736Z,0.10
2018-02-20T02:19:20.183Z,0.10
2018-02-20T02:21:47.642Z,0.10
2018-02-20T02:24:15.094Z,0.10
2018-02-20T02:26:42.556Z,0.10
2018-02-20T02:29:10.006Z,0.10
2018-02-20T02:31:37.472Z,0.10
2018-02-20T02:34:04.920Z,0.10
2018-02-20T02:36:32.384Z,0.00
2018-02-20T02:38:59.845Z,0.00
2018-02-20T02:41:27.304Z,0.00
2018-02-20T02:43:54.768Z,0.00
2018-02-20T02:46:22.212Z,0.00
2018-02-20T02:48:49.671Z,0.00
2018-02-20T02:51:17.124Z,0.00
2018-02-20T02:53:44.584Z,0.00
2018-02-20T02:56:12.036Z,0.00
2018-02-20T02:58:39.503Z,0.10
2018-02-20T03:01:06.952Z,0.10
2018-02-20T03:03:34.403Z,0.10
2018-02-20T03:06:01.874Z,0.10
2018-02-20T03:08:29.314Z,0.10
2018-02-20T03:10:56.762Z,0.10
2018-02-20T03:13:24.219Z,0.10
2018-02-20T03:15:51.670Z,0.00
2018-02-20T03:18:19.131Z,0.10
2018-02-20T03:20:46.638Z,0.10
2018-02-20T03:23:14.094Z,0.00
2018-02-20T03:25:41.542Z,0.00
2018-02-20T03:28:09.765Z,0.00
2018-02-20T03:30:37.228Z,0.00
2018-02-20T03:33:04.688Z,0.10
2018-02-20T03:35:32.140Z,0.00
2018-02-20T03:37:59.594Z,0.00
2018-02-20T03:40:27.051Z,0.00
2018-02-20T03:42:54.506Z,0.00
2018-02-20T03:45:21.964Z,0.00
2018-02-20T03:47:49.419Z,0.00
2018-02-20T03:50:16.875Z,0.00
2018-02-20T03:52:44.335Z,0.00
2018-02-20T03:55:11.778Z,0.00
2018-02-20T03:57:39.236Z,0.10
2018-02-20T04:00:06.686Z,0.00
2018-02-20T04:02:34.156Z,0.00
2018-02-20T04:05:01.602Z,0.10
2018-02-20T04:07:29.067Z,0.10
2018-02-20T04:09:56.523Z,0.00
2018-02-20T04:12:23.980Z,0.00
2018-02-20T04:14:51.433Z,0.00
2018-02-20T04:17:18.892Z,0.00
2018-02-20T04:19:46.455Z,0.00
2018-02-20T04:22:13.908Z,0.00
2018-02-20T04:24:41.363Z,0.10
2018-02-20T04:27:08.815Z,0.10
2018-02-20T04:29:36.266Z,0.00
2018-02-20T04:32:03.711Z,0.10
2018-02-20T04:34:31.167Z,0.00
2018-02-20T04:36:58.623Z,0.00
2018-02-20T04:39:26.083Z,0.10
2018-02-20T04:41:53.535Z,0.10
2018-02-20T04:44:20.992Z,0.10
2018-02-20T04:46:48.441Z,0.10
2018-02-20T04:49:15.891Z,0.10
2018-02-20T04:51:43.344Z,0.00
2018-02-20T04:54:10.800Z,0.00
2018-02-20T04:56:38.244Z,0.00
2018-02-20T04:59:06.467Z,0.00
2018-02-20T05:01:33.918Z,0.00
2018-02-20T05:04:01.378Z,0.00
2018-02-20T05:06:28.845Z,0.10
2018-02-20T05:08:56.291Z,0.10
2018-02-20T05:11:23.748Z,0.00
2018-02-20T05:13:51.199Z,0.10
2018-02-20T05:16:18.647Z,0.00
2018-02-20T05:18:46.871Z,0.00
2018-02-20T05:21:14.314Z,0.00
2018-02-20T05:23:41.774Z,0.00
2018-02-20T05:26:09.224Z,0.00
2018-02-20T05:28:36.679Z,0.00
2018-02-20T05:31:04.122Z,0.00
2018-02-20T05:33:31.580Z,0.00
2018-02-20T05:35:59.028Z,-0.10
2018-02-20T05:38:26.479Z,-0.10
2018-02-20T05:40:53.953Z,-0.10
2018-02-20T05:43:21.403Z,-0.10
2018-02-20T05:45:48.870Z,-0.10
2018-02-20T05:48:16.318Z,0.00
2018-02-20T05:50:43.954Z,0.10
2018-02-20T05:53:11.400Z,0.10
2018-02-20T05:55:38.868Z,0.10
2018-02-20T05:58:06.319Z,0.00
2018-02-20T06:00:33.780Z,0.00
2018-02-20T06:03:01.235Z,0.00
2018-02-20T06:05:28.690Z,0.00
2018-02-20T06:07:56.151Z,0.00
2018-02-20T06:10:23.607Z,0.10
2018-02-20T06:12:51.063Z,0.00
2018-02-20T06:15:18.516Z,0.10
2018-02-20T06:17:45.963Z,0.10
2018-02-20T06:20:13.431Z,0.10
2018-02-20T06:22:40.888Z,0.10
2018-02-20T06:25:08.344Z,0.00
2018-02-20T06:27:35.790Z,0.00
2018-02-20T06:30:03.247Z,0.00
2018-02-20T06:32:30.687Z,0.00
2018-02-20T06:34:58.175Z,0.00
2018-02-20T06:37:25.622Z,0.00
2018-02-20T06:39:53.079Z,0.20
2018-02-20T06:42:20.535Z,0.30
2018-02-20T06:44:48.003Z,0.60
2018-02-20T06:47:15.447Z,0.60
2018-02-20T06:49:42.904Z,0.50
2018-02-20T06:52:10.352Z,0.40
2018-02-20T06:54:41.220Z,0.40
2018-02-20T06:57:08.667Z,0.40
2018-02-20T06:59:36.120Z,0.40
2018-02-20T07:02:03.572Z,0.30
2018-02-20T07:04:31.019Z,0.30
2018-02-20T07:06:58.477Z,0.30
2018-02-20T07:09:25.936Z,0.30
2018-02-20T07:11:53.391Z,0.30
2018-02-20T07:14:26.527Z,0.30
2018-02-20T07:16:53.967Z,0.30
2018-02-20T07:19:21.415Z,0.30
2018-02-20T07:21:48.868Z,0.30
2018-02-20T07:24:16.323Z,0.30
2018-02-20T07:26:43.783Z,0.30
2018-02-20T07:29:11.223Z,0.30
2018-02-20T07:31:38.679Z,0.40
2018-02-20T07:34:06.123Z,0.40
2018-02-20T07:39:26.875Z,0.50
2018-02-20T07:41:54.332Z,0.50
2018-02-20T07:44:21.787Z,0.50
2018-02-20T07:46:49.234Z,0.50
2018-02-20T07:49:16.684Z,0.60
2018-02-20T07:51:44.144Z,0.60
2018-02-20T07:54:11.591Z,0.60
2018-02-20T07:56:39.051Z,0.70
2018-02-20T07:59:06.502Z,0.70
2018-02-20T08:01:33.975Z,0.70
2018-02-20T08:04:01.428Z,0.80
2018-02-20T08:06:28.883Z,0.80
2018-02-20T08:08:56.336Z,0.80
2018-02-20T08:11:23.796Z,0.90
2018-02-20T08:13:51.238Z,0.90
2018-02-20T08:16:18.696Z,0.90
2018-02-20T08:18:46.146Z,1.00
2018-02-20T08:21:13.595Z,1.00
2018-02-20T08:23:41.055Z,1.00
2018-02-20T08:26:08.514Z,1.10
2018-02-20T08:28:35.966Z,1.10
2018-02-20T08:31:03.426Z,1.10
2018-02-20T08:33:30.904Z,1.10
2018-02-20T08:35:58.373Z,1.20
2018-02-20T08:38:25.828Z,1.20
2018-02-20T08:40:53.711Z,1.20
2018-02-20T08:43:21.936Z,1.30
2018-02-20T08:45:49.388Z,1.20
2018-02-20T08:48:16.844Z,1.20
2018-02-20T08:50:44.304Z,1.20
2018-02-20T08:53:11.757Z,1.20
2018-02-20T08:55:39.220Z,1.30
2018-02-20T08:58:06.671Z,1.30
2018-02-20T09:00:34.129Z,1.40
2018-02-20T09:03:01.587Z,1.30
2018-02-20T09:05:29.064Z,1.30
2018-02-20T09:07:56.508Z,1.30
2018-02-20T09:10:23.955Z,1.30
2018-02-20T09:12:51.419Z,1.30
2018-02-20T09:15:18.868Z,1.40
2018-02-20T09:17:46.332Z,1.40
2018-02-20T09:20:13.787Z,1.40
2018-02-20T09:22:41.234Z,1.40
2018-02-20T09:25:08.687Z,1.40
2018-02-20T09:27:36.151Z,1.40
2018-02-20T09:30:03.602Z,1.50
2018-02-20T09:32:31.055Z,1.50
2018-02-20T09:34:58.511Z,1.60
2018-02-20T09:37:25.975Z,1.60
2018-02-20T09:39:53.423Z,1.60
2018-02-20T09:42:20.883Z,1.60
2018-02-20T09:44:48.334Z,1.70
2018-02-20T09:47:15.799Z,1.80
2018-02-20T09:49:43.264Z,1.80
2018-02-20T09:52:10.723Z,1.90
2018-02-20T09:54:38.179Z,1.90
2018-02-20T09:57:05.643Z,2.00
2018-02-20T09:59:33.091Z,2.00
2018-02-20T10:02:00.556Z,2.00
2018-02-20T10:04:28.010Z,2.00
2018-02-20T10:06:55.483Z,2.10
2018-02-20T10:09:22.938Z,2.20
2018-02-20T10:11:50.405Z,2.30
2018-02-20T10:14:17.851Z,2.40
2018-02-20T10:16:45.311Z,2.40
2018-02-20T10:19:12.762Z,2.40
2018-02-20T10:21:40.215Z,2.30
2018-02-20T10:24:07.667Z,2.40
2018-02-20T10:26:35.125Z,2.40
2018-02-20T10:29:02.576Z,2.40
2018-02-20T10:31:30.076Z,2.50
2018-02-20T10:33:58.295Z,2.60
2018-02-20T10:36:25.749Z,2.60
2018-02-20T10:38:53.203Z,2.60
2018-02-20T10:41:20.664Z,2.60
2018-02-20T10:43:48.167Z,2.70
2018-02-20T10:46:15.611Z,2.70
2018-02-20T10:48:43.069Z,2.70
2018-02-20T10:51:10.517Z,2.70
2018-02-20T10:53:37.972Z,2.70
2018-02-20T10:56:05.457Z,2.70
2018-02-20T10:58:32.886Z,2.70
2018-02-20T11:01:00.339Z,2.50
2018-02-20T11:03:27.799Z,2.50
2018-02-20T11:05:55.247Z,2.50
2018-02-20T11:08:22.704Z,2.60
2018-02-20T11:10:50.158Z,2.60
2018-02-20T11:13:17.627Z,2.60
2018-02-20T11:15:45.073Z,2.70
2018-02-20T11:18:12.531Z,2.70
2018-02-20T11:20:39.987Z,2.80
2018-02-20T11:23:07.443Z,2.80
2018-02-20T11:25:34.892Z,2.80
2018-02-20T11:28:02.354Z,2.60
2018-02-20T11:30:29.890Z,2.70
2018-02-20T11:32:57.336Z,2.80
2018-02-20T11:35:24.781Z,2.80
2018-02-20T11:37:52.235Z,3.00
2018-02-20T11:40:20.455Z,3.10
2018-02-20T11:42:47.907Z,3.10
2018-02-20T11:45:15.359Z,3.10
2018-02-20T11:47:42.815Z,3.20
2018-02-20T11:50:10.258Z,3.00
2018-02-20T11:52:37.724Z,3.10
2018-02-20T11:55:05.179Z,3.00
2018-02-20T11:57:32.635Z,3.00
2018-02-20T12:00:00.157Z,3.00
2018-02-20T12:02:27.553Z,3.10
2018-02-20T12:04:55.007Z,2.90
2018-02-20T12:07:22.485Z,2.80
2018-02-20T12:09:49.932Z,2.90
2018-02-20T12:12:17.386Z,2.90
2018-02-20T12:14:44.847Z,3.10
2018-02-20T12:17:12.292Z,3.00
2018-02-20T12:19:39.746Z,3.00
2018-02-20T12:22:06.746Z,3.00
2018-02-20T12:24:34.965Z,3.00
2018-02-20T12:27:01.962Z,3.00
2018-02-20T12:29:29.423Z,3.10
2018-02-20T12:31:56.868Z,3.10
2018-02-20T12:34:24.323Z,3.00
2018-02-20T12:36:51.776Z,3.00
2018-02-20T12:39:19.236Z,2.90
2018-02-20T12:41:46.688Z,2.90
2018-02-20T12:44:14.143Z,2.90
2018-02-20T12:46:41.603Z,2.90
2018-02-20T12:49:09.059Z,2.90
2018-02-20T12:51:36.507Z,2.90
2018-02-20T12:54:03.959Z,2.90
2018-02-20T12:56:31.412Z,2.90
2018-02-20T12:58:58.872Z,2.80
2018-02-20T13:01:25.862Z,2.80
2018-02-20T13:03:54.080Z,2.80
2018-02-20T13:06:21.527Z,2.80
2018-02-20T13:08:48.978Z,2.60
2018-02-20T13:11:16.435Z,2.60
2018-02-20T13:13:43.895Z,2.60
2018-02-20T13:16:11.349Z,2.60
2018-02-20T13:18:39.568Z,2.50
2018-02-20T13:21:07.011Z,2.50
2018-02-20T13:23:34.474Z,2.50
2018-02-20T13:26:01.932Z,2.50
2018-02-20T13:28:29.386Z,2.50
2018-02-20T13:30:56.386Z,2.40
2018-02-20T13:33:23.838Z,2.40
2018-02-20T13:35:51.287Z,2.30
2018-02-20T13:38:19.050Z,2.30
2018-02-20T13:40:46.499Z,2.20
2018-02-20T13:43:14.262Z,2.30
2018-02-20T13:45:42.031Z,2.30
2018-02-20T13:48:09.033Z,2.20
2018-02-20T13:50:36.048Z,2.30
2018-02-20T13:53:03.046Z,2.20
2018-02-20T13:55:31.267Z,2.20
2018-02-20T13:57:58.723Z,2.20
2018-02-20T14:00:26.187Z,2.20
2018-02-20T14:02:53.185Z,2.20
2018-02-20T14:05:20.950Z,2.20
2018-02-20T14:07:48.726Z,2.20
2018-02-20T14:10:16.494Z,2.10
2018-02-20T14:12:44.256Z,2.10
2018-02-20T14:15:12.023Z,2.10
2018-02-20T14:17:39.011Z,2.10
2018-02-20T14:20:06.022Z,2.00
2018-02-20T14:22:33.018Z,1.90
2018-02-20T14:25:00.014Z,1.90
2018-02-20T14:27:27.018Z,1.90
2018-02-20T14:29:54.030Z,1.90
2018-02-20T14:32:21.030Z,1.90
2018-02-20T14:34:48.802Z,1.80
2018-02-20T14:37:16.553Z,1.80
2018-02-20T14:39:43.564Z,1.80
2018-02-20T14:42:10.558Z,1.80
2018-02-20T14:44:38.335Z,1.70
2018-02-20T14:47:05.338Z,1.70
2018-02-20T14:49:32.343Z,1.70
2018-02-20T14:51:59.339Z,1.70
2018-02-20T14:54:26.343Z,1.70
2018-02-20T14:56:53.342Z,1.80
2018-02-20T14:59:20.342Z,1.70
2018-02-20T15:01:48.614Z,1.70
2018-02-20T15:04:16.066Z,1.70
2018-02-20T15:06:43.529Z,1.70
2018-02-20T15:09:10.978Z,1.80
2018-02-20T15:11:37.976Z,1.70
2018-02-20T15:14:06.208Z,1.70
2018-02-20T15:16:33.662Z,1.70
2018-02-20T15:19:01.115Z,1.70
2018-02-20T15:21:28.572Z,1.70
2018-02-20T15:23:56.011Z,1.70
2018-02-20T15:26:23.467Z,1.70
2018-02-20T15:28:50.916Z,1.60
2018-02-20T15:31:18.368Z,1.60
2018-02-20T15:33:45.824Z,1.60
2018-02-20T15:36:14.034Z,1.60
2018-02-20T15:38:41.043Z,1.60
2018-02-20T15:41:08.059Z,1.60
2018-02-20T15:43:35.059Z,1.60
2018-02-20T15:46:02.521Z,1.60
2018-02-20T15:48:29.976Z,1.60
2018-02-20T15:50:56.983Z,1.60
2018-02-20T15:53:25.208Z,1.70
2018-02-20T15:55:52.676Z,1.70
2018-02-20T15:58:20.132Z,1.60
2018-02-20T16:00:47.587Z,1.60
2018-02-20T16:03:15.040Z,1.60
2018-02-20T16:05:42.501Z,1.60
2018-02-20T16:08:09.955Z,1.60
2018-02-20T16:10:37.415Z,1.60
2018-02-20T16:13:04.867Z,1.60
2018-02-20T16:15:36.223Z,1.60
2018-02-20T16:18:03.235Z,1.50
2018-02-20T16:20:30.696Z,1.50
2018-02-20T16:22:58.156Z,1.50
2018-02-20T16:25:25.151Z,1.50
2018-02-20T16:27:52.164Z,1.50
2018-02-20T16:30:19.180Z,1.50
2018-02-20T16:32:46.191Z,1.50
2018-02-20T16:35:13.198Z,1.40
2018-02-20T16:37:40.200Z,1.40
2018-02-20T16:40:08.428Z,1.40
2018-02-20T16:42:35.884Z,1.40
2018-02-20T16:45:02.888Z,1.30
2018-02-20T16:47:29.903Z,1.30
2018-02-20T16:49:57.029Z,1.30
2018-02-20T16:52:24.042Z,1.20
2018-02-20T16:54:51.503Z,1.20
2018-02-20T16:57:18.971Z,1.20
2018-02-20T16:59:46.425Z,1.10
2018-02-20T17:02:13.896Z,1.00
2018-02-20T17:04:41.352Z,1.00
2018-02-20T17:07:08.808Z,1.00
2018-02-20T17:09:35.798Z,0.90
2018-02-20T17:12:03.567Z,0.90
2018-02-20T17:14:31.331Z,0.80
2018-02-20T17:17:05.611Z,0.80
2018-02-20T17:19:33.514Z,0.80
2018-02-20T17:22:00.530Z,0.80
2018-02-20T17:24:27.979Z,0.80
2018-02-20T17:26:55.435Z,0.80
2018-02-20T17:29:22.892Z,0.90
2018-02-20T17:31:51.146Z,0.80
2018-02-20T17:34:18.591Z,0.80
2018-02-20T17:36:46.052Z,0.80
2018-02-20T17:39:13.498Z,0.80
2018-02-20T17:41:40.957Z,0.80
2018-02-20T17:44:08.408Z,0.80
2018-02-20T17:46:35.867Z,0.80
2018-02-20T17:49:03.324Z,0.80
2018-02-20T17:51:30.326Z,0.70
2018-02-20T17:53:57.782Z,0.70
2018-02-20T17:56:26.073Z,0.70
2018-02-20T17:58:53.075Z,0.70
2018-02-20T18:01:20.106Z,0.70
2018-02-20T18:03:47.102Z,0.60
2018-02-20T18:06:14.878Z,0.60
2018-02-20T18:08:41.879Z,0.60
2018-02-20T18:11:08.888Z,0.60
2018-02-20T18:13:35.895Z,0.60
2018-02-20T18:16:03.663Z,0.60
2018-02-20T18:18:31.427Z,0.60
2018-02-20T18:20:59.186Z,0.60
2018-02-20T18:23:26.990Z,0.60
2018-02-20T18:25:53.994Z,0.50
2018-02-20T18:28:21.767Z,0.60
2018-02-20T18:30:49.542Z,0.60
2018-02-20T18:33:17.004Z,0.50
2018-02-20T18:35:44.456Z,0.50
2018-02-20T18:38:11.915Z,0.50
2018-02-20T18:40:39.365Z,0.50
2018-02-20T18:43:06.420Z,0.40
2018-02-20T18:45:34.197Z,0.50
2018-02-20T18:48:01.230Z,0.50
2018-02-20T18:50:28.727Z,0.50
2018-02-20T18:52:56.191Z,0.50
2018-02-20T18:55:23.641Z,0.50
2018-02-20T18:57:51.095Z,0.50
2018-02-20T19:00:18.548Z,0.50
2018-02-20T19:02:46.023Z,0.50
2018-02-20T19:05:13.497Z,0.50
2018-02-20T19:07:40.976Z,0.50
2018-02-20T19:10:08.743Z,0.50
2018-02-20T19:12:36.232Z,0.50
2018-02-20T19:15:03.692Z,0.60
2018-02-20T19:17:30.707Z,0.60
2018-02-20T19:19:57.731Z,0.60
2018-02-20T19:22:25.506Z,0.60
2018-02-20T19:24:52.530Z,0.60
2018-02-20T19:27:19.526Z,0.60
2018-02-20T19:29:46.529Z,0.60
2018-02-20T19:32:14.299Z,0.60
2018-02-20T19:34:42.056Z,0.50
2018-02-20T19:37:09.843Z,0.50
2018-02-20T19:39:36.847Z,0.50
2018-02-20T19:42:04.651Z,0.50
2018-02-20T19:44:32.412Z,0.50
2018-02-20T19:46:59.422Z,0.50
2018-02-20T19:49:26.412Z,0.40
2018-02-20T19:51:53.449Z,0.40
2018-02-20T19:54:20.477Z,0.30
2018-02-20T19:56:48.239Z,0.30
2018-02-20T19:59:16.357Z,0.30
2018-02-20T20:01:43.548Z,0.20
2018-02-20T20:04:10.550Z,0.20
2018-02-20T20:06:37.570Z,0.20
2018-02-20T20:09:04.590Z,0.20
2018-02-20T20:11:31.619Z,0.20
2018-02-20T20:13:58.630Z,0.20
2018-02-20T20:16:26.410Z,0.20
2018-02-20T20:18:53.447Z,-0.10
2018-02-20T20:21:20.450Z,0.20
2018-02-20T20:23:48.276Z,0.20
2018-02-20T20:26:15.274Z,0.20
2018-02-20T20:28:42.289Z,0.20
2018-02-20T20:31:09.285Z,0.20
2018-02-20T20:33:36.291Z,0.20
2018-02-20T20:36:04.059Z,0.30
2018-02-20T20:38:32.276Z,0.30
2018-02-20T20:40:59.727Z,0.20
2018-02-20T20:43:26.755Z,0.30
2018-02-20T20:45:53.831Z,0.20
2018-02-20T20:48:20.863Z,0.20
2018-02-20T20:50:47.851Z,0.20
2018-02-20T20:53:14.892Z,0.30
2018-02-20T20:55:41.899Z,0.20
2018-02-20T20:58:08.907Z,0.20
2018-02-20T21:00:36.680Z,0.10
2018-02-20T21:03:04.462Z,0.10
2018-02-20T21:05:31.472Z,0.10
2018-02-20T21:07:58.490Z,0.10
2018-02-20T21:10:25.516Z,0.10
2018-02-20T21:12:52.522Z,0.10
2018-02-20T21:15:20.320Z,0.00
2018-02-20T21:17:47.328Z,0.00
2018-02-20T21:20:15.526Z,-0.10
2018-02-20T21:22:42.584Z,-0.10
2018-02-20T21:25:09.591Z,-0.10
2018-02-20T21:27:36.603Z,-0.10
2018-02-20T21:30:03.615Z,-0.10
2018-02-20T21:32:30.628Z,-0.10
2018-02-20T21:34:58.634Z,-0.20
2018-02-20T21:37:25.631Z,-0.20
2018-02-20T21:39:53.705Z,-0.10
2018-02-20T21:42:21.863Z,-0.20
2018-02-20T21:44:48.875Z,-0.20
2018-02-20T21:47:16.559Z,-0.20
2018-02-20T21:49:44.490Z,-0.30
2018-02-20T21:52:11.498Z,-0.20
2018-02-20T21:54:38.518Z,-0.20
2018-02-20T21:57:05.971Z,-0.30
2018-02-20T21:59:32.987Z,-0.30
2018-02-20T22:01:59.995Z,-0.30
2018-02-20T22:04:27.019Z,-0.40
2018-02-20T22:06:54.383Z,-0.40
2018-02-20T22:09:21.461Z,-0.40
2018-02-20T22:11:49.248Z,-0.50
2018-02-20T22:14:16.998Z,-0.50
2018-02-20T22:16:44.764Z,-0.50
2018-02-20T22:19:11.782Z,-0.50
2018-02-20T22:21:38.798Z,-0.60
2018-02-20T22:24:05.802Z,-0.50
2018-02-20T22:26:32.804Z,-0.60
2018-02-20T22:28:59.811Z,-0.60
2018-02-20T22:31:26.814Z,-0.60
2018-02-20T22:33:53.826Z,-0.60
2018-02-20T22:36:20.831Z,-0.60
2018-02-20T22:38:47.843Z,-0.60
2018-02-20T22:41:14.838Z,-0.60
2018-02-20T22:43:41.848Z,-0.70
2018-02-20T22:46:09.623Z,-0.70
2018-02-20T22:48:37.399Z,-0.70
2018-02-20T22:51:04.414Z,-0.70
2018-02-20T22:53:32.197Z,-0.80
2018-02-20T22:55:59.661Z,-0.70
2018-02-20T22:58:27.112Z,-0.80
2018-02-20T23:00:54.886Z,-0.80
2018-02-20T23:03:22.340Z,-0.80
2018-02-20T23:05:49.363Z,-0.80
2018-02-20T23:08:17.132Z,-0.80
2018-02-20T23:10:44.915Z,-0.70
2018-02-20T23:13:12.971Z,-0.70
2018-02-20T23:15:40.430Z,-0.70
2018-02-20T23:18:07.883Z,-0.70
2018-02-20T23:20:35.348Z,-0.70
2018-02-20T23:23:02.798Z,-0.60
2018-02-20T23:25:30.254Z,-0.60
2018-02-20T23:27:57.704Z,-0.60
2018-02-20T23:30:25.163Z,-0.70
2018-02-20T23:32:53.384Z,-0.70
2018-02-20T23:35:20.851Z,-0.70
2018-02-20T23:37:48.328Z,-0.70
2018-02-20T23:40:15.784Z,-0.70
2018-02-20T23:42:43.241Z,-0.70
2018-02-20T23:45:10.703Z,-0.70
2018-02-20T23:47:38.927Z,-0.70
2018-02-20T23:50:06.390Z,-0.70
2018-02-20T23:52:33.840Z,-0.70
2018-02-20T23:55:01.304Z,-0.70
2018-02-20T23:57:28.758Z,-0.70
2018-02-20T23:59:56.226Z,-0.70
